Time;durP1;ratioP1;P1;durP2;ratioP2;P2;SDS_P1;SDS_P2;PMS_P1;PMS_P2;Temp;Humidity;BMP_temperature;BMP_pressure;BME280_temperature;BME280_humidity;BME280_pressure;Samples;Min_cycle;Max_cycle;Signal;HPM_P1;HPM_P2
2024/04/10 00:00:28;;;;;;;6.32;1.98;;;10.60;61.60;;;;;;4539375;26;20021;-76
2024/04/10 00:02:29;;;;;;;8.43;2.35;;;10.60;61.60;;;;;;4538929;26;20568;-75
2024/04/10 00:04:29;;;;;;;8.50;1.67;;;10.60;61.50;;;;;;4538596;26;20006;-75
2024/04/10 00:06:30;;;;;;;9.52;1.90;;;10.60;62.20;;;;;;4538919;26;20099;-75
2024/04/10 00:08:35;;;;;;;8.40;2.63;;;10.50;62.50;;;;;;4539206;26;20447;-76
2024/04/10 00:10:36;;;;;;;8.77;2.28;;;10.40;63.30;;;;;;4507319;26;20010;-75
2024/04/10 00:12:37;;;;;;;5.07;1.90;;;10.30;63.80;;;;;;4529511;26;20002;-75
2024/04/10 00:14:38;;;;;;;7.97;2.47;;;10.20;63.80;;;;;;4538956;26;20008;-75
2024/04/10 00:16:39;;;;;;;6.22;2.10;;;10.10;64.40;;;;;;4506646;26;20051;-75
2024/04/10 00:18:39;;;;;;;7.28;2.13;;;10.10;63.90;;;;;;4517425;26;20014;-75
2024/04/10 00:20:47;;;;;;;8.57;3.53;;;10.10;64.00;;;;;;4539304;26;20001;-76
2024/04/10 00:22:47;;;;;;;17.10;6.93;;;10.10;64.00;;;;;;4507185;26;20027;-76
2024/04/10 00:24:51;;;;;;;28.52;15.18;;;10.10;64.30;;;;;;4492746;26;20009;-75
2024/04/10 00:26:53;;;;;;;45.05;29.00;;;10.10;64.00;;;;;;4530733;26;20014;-75
2024/04/10 00:28:53;;;;;;;40.70;25.00;;;10.10;63.80;;;;;;4538890;26;20327;-75
2024/04/10 00:30:54;;;;;;;28.10;16.63;;;10.10;63.30;;;;;;4567435;25;19995;-75
2024/04/10 00:32:55;;;;;;;33.75;19.50;;;10.20;63.30;;;;;;4539232;26;20034;-75
2024/04/10 00:34:55;;;;;;;31.33;17.63;;;10.20;63.30;;;;;;4538386;26;20062;-75
2024/04/10 00:36:56;;;;;;;28.40;19.73;;;10.20;63.20;;;;;;4538521;26;19998;-75
2024/04/10 00:38:57;;;;;;;27.25;12.05;;;10.20;64.30;;;;;;4538658;26;19994;-75
2024/04/10 00:41:03;;;;;;;18.20;8.77;;;10.10;64.70;;;;;;4538909;26;20080;-75
2024/04/10 00:43:03;;;;;;;12.00;4.03;;;10.00;64.60;;;;;;4539214;26;20511;-76
2024/04/10 00:45:04;;;;;;;12.98;3.17;;;9.90;65.00;;;;;;4538348;26;20009;-75
2024/04/10 00:47:05;;;;;;;10.73;2.53;;;9.90;64.60;;;;;;4538913;26;20354;-75
2024/04/10 00:49:06;;;;;;;8.90;2.40;;;9.90;65.00;;;;;;4538793;26;19998;-75
2024/04/10 00:51:08;;;;;;;13.23;2.92;;;9.90;65.00;;;;;;4538493;26;20016;-76
2024/04/10 00:53:09;;;;;;;8.45;2.55;;;9.90;65.10;;;;;;4538572;26;20013;-75
2024/04/10 00:55:11;;;;;;;9.85;2.45;;;9.80;64.80;;;;;;4538792;26;20005;-75
2024/04/10 00:57:12;;;;;;;6.05;2.10;;;9.80;65.70;;;;;;4538525;26;19998;-76
2024/04/10 00:59:12;;;;;;;7.32;2.15;;;9.70;65.80;;;;;;4538618;26;20013;-75
2024/04/10 01:01:13;;;;;;;7.28;2.28;;;9.70;65.80;;;;;;4566968;26;20078;-75
2024/04/10 01:03:15;;;;;;;7.38;2.20;;;9.70;65.20;;;;;;4538326;26;20444;-75
2024/04/10 01:05:16;;;;;;;8.63;2.72;;;9.70;65.40;;;;;;4538183;26;20106;-75
2024/04/10 01:07:17;;;;;;;6.68;2.30;;;9.80;65.30;;;;;;4538604;26;20439;-75
2024/04/10 01:09:17;;;;;;;7.55;2.28;;;9.80;65.20;;;;;;4538835;26;20410;-75
2024/04/10 01:11:18;;;;;;;8.15;2.30;;;9.70;65.90;;;;;;4538404;26;20082;-75
2024/04/10 01:13:19;;;;;;;9.07;1.98;;;9.70;65.40;;;;;;4506499;26;20060;-76
2024/04/10 01:15:20;;;;;;;8.77;2.20;;;9.80;65.10;;;;;;4517829;26;20006;-75
2024/04/10 01:17:20;;;;;;;5.03;2.05;;;9.80;65.20;;;;;;4538234;26;20027;-75
2024/04/10 01:19:21;;;;;;;7.57;2.10;;;9.80;65.60;;;;;;4531262;26;20424;-76
2024/04/10 01:21:22;;;;;;;8.85;3.25;;;9.70;66.60;;;;;;4567017;25;20012;-75
2024/04/10 01:23:23;;;;;;;9.75;2.25;;;9.70;66.40;;;;;;4538665;26;20104;-74
2024/04/10 01:25:23;;;;;;;9.57;2.88;;;9.60;66.10;;;;;;4537685;26;20002;-75
2024/04/10 01:27:24;;;;;;;7.22;2.55;;;9.70;66.10;;;;;;4538206;26;20013;-75
2024/04/10 01:29:24;;;;;;;10.38;2.40;;;9.70;66.90;;;;;;4538211;26;20343;-75
2024/04/10 01:31:27;;;;;;;9.63;2.47;;;9.60;66.30;;;;;;4538052;26;20050;-75
2024/04/10 01:33:27;;;;;;;;;;;9.70;66.20;;;;;;4539147;26;20067;-75
2024/04/10 01:35:28;;;;;;;7.90;1.83;;;9.70;66.70;;;;;;4538169;26;20410;-75
2024/04/10 01:37:29;;;;;;;7.68;1.90;;;9.60;67.40;;;;;;4538523;26;20481;-75
2024/04/10 01:39:29;;;;;;;9.05;2.58;;;9.60;66.80;;;;;;4537967;26;19994;-75
2024/04/10 01:41:30;;;;;;;10.30;2.08;;;9.70;66.50;;;;;;4538418;26;20074;-75
2024/04/10 01:43:31;;;;;;;10.85;2.30;;;9.70;66.20;;;;;;4505955;26;19999;-75
2024/04/10 01:45:32;;;;;;;7.95;2.25;;;9.70;67.00;;;;;;4537366;26;19998;-76
2024/04/10 01:47:32;;;;;;;6.68;2.55;;;9.70;66.90;;;;;;4538092;26;20420;-75
2024/04/10 01:49:33;;;;;;;11.15;2.50;;;9.70;67.10;;;;;;4537786;26;20006;-76
2024/04/10 01:51:34;;;;;;;9.45;2.53;;;9.60;66.80;;;;;;4537706;26;20002;-76
2024/04/10 01:53:35;;;;;;;13.40;2.55;;;9.60;67.30;;;;;;4537491;26;20332;-75
2024/04/10 01:55:36;;;;;;;9.30;2.10;;;9.60;67.40;;;;;;4537413;26;19998;-75
2024/04/10 01:57:36;;;;;;;9.45;2.72;;;9.70;67.20;;;;;;4538153;26;20005;-75
2024/04/10 01:59:37;;;;;;;8.55;2.42;;;9.70;67.40;;;;;;4505868;26;20302;-75
2024/04/10 02:01:38;;;;;;;7.95;2.03;;;9.60;67.60;;;;;;4507836;26;19999;-75
2024/04/10 02:03:38;;;;;;;7.47;2.33;;;9.60;67.60;;;;;;4488627;26;20014;-75
2024/04/10 02:05:40;;;;;;;10.38;2.17;;;9.60;67.40;;;;;;4537454;26;20316;-75
2024/04/10 02:07:41;;;;;;;7.13;2.22;;;9.60;67.60;;;;;;4537690;26;20471;-76
2024/04/10 02:09:41;;;;;;;9.18;2.17;;;9.60;67.00;;;;;;4505330;26;20009;-76
2024/04/10 02:11:42;;;;;;;11.73;2.97;;;9.60;67.50;;;;;;4513622;26;20392;-75
2024/04/10 02:13:43;;;;;;;7.72;2.22;;;9.50;67.70;;;;;;4537490;26;20440;-75
2024/04/10 02:15:43;;;;;;;9.85;2.30;;;9.60;68.40;;;;;;4537452;26;20021;-76
2024/04/10 02:17:44;;;;;;;8.20;2.10;;;9.50;68.00;;;;;;4537435;26;19999;-75
2024/04/10 02:19:44;;;;;;;14.23;3.22;;;9.50;68.50;;;;;;4537485;26;20009;-76
2024/04/10 02:21:45;;;;;;;13.70;3.22;;;9.40;68.30;;;;;;4537611;26;20050;-76
2024/04/10 02:23:46;;;;;;;7.82;2.13;;;9.50;68.30;;;;;;4537010;26;19998;-76
2024/04/10 02:25:46;;;;;;;7.13;1.95;;;9.50;68.10;;;;;;4537362;26;20343;-75
2024/04/10 02:27:47;;;;;;;10.77;2.65;;;9.50;68.00;;;;;;4565742;26;19997;-76
2024/04/10 02:29:48;;;;;;;10.52;3.28;;;9.50;67.90;;;;;;4537243;26;20002;-75
2024/04/10 02:31:49;;;;;;;6.80;2.28;;;9.50;68.50;;;;;;4537057;26;19998;-75
2024/04/10 02:33:49;;;;;;;14.07;2.88;;;9.50;68.50;;;;;;4537326;26;20066;-75
2024/04/10 02:35:50;;;;;;;13.68;2.67;;;9.40;68.90;;;;;;4536526;26;20404;-75
2024/04/10 02:37:50;;;;;;;11.00;2.92;;;9.40;69.30;;;;;;4537569;26;20347;-75
2024/04/10 02:39:52;;;;;;;11.63;2.92;;;9.40;69.40;;;;;;4505236;26;20014;-76
2024/04/10 02:41:52;;;;;;;10.15;2.47;;;9.30;69.60;;;;;;4525151;26;20408;-75
2024/04/10 02:43:53;;;;;;;7.38;2.35;;;9.40;69.10;;;;;;4537118;26;20002;-75
2024/04/10 02:46:01;;;;;;;10.55;2.55;;;9.40;69.50;;;;;;4536564;26;19999;-76
2024/04/10 02:48:02;;;;;;;7.78;2.50;;;9.30;69.80;;;;;;4537934;26;19998;-75
2024/04/10 02:50:04;;;;;;;12.10;2.95;;;9.30;69.60;;;;;;4507996;26;20009;-76
2024/04/10 02:52:05;;;;;;;6.38;2.50;;;9.30;70.20;;;;;;4528295;26;19994;-75
2024/04/10 02:54:05;;;;;;;11.02;2.70;;;9.20;70.00;;;;;;4540057;26;19998;-75
2024/04/10 02:56:06;;;;;;;16.33;2.80;;;9.30;70.10;;;;;;4539827;26;20428;-75
2024/04/10 02:58:07;;;;;;;11.27;4.15;;;9.30;70.00;;;;;;4540035;26;20034;-76
2024/04/10 03:00:10;;;;;;;11.70;2.30;;;9.20;70.40;;;;;;4568841;26;20005;-75
2024/04/10 03:02:11;;;;;;;13.07;3.90;;;9.20;70.30;;;;;;4539806;26;20339;-76
2024/04/10 03:04:12;;;;;;;10.43;2.40;;;9.20;70.00;;;;;;4508064;26;20436;-75
2024/04/10 03:06:13;;;;;;;9.18;2.97;;;9.30;70.00;;;;;;4563938;25;20001;-75
2024/04/10 03:08:14;;;;;;;9.65;3.47;;;9.20;70.90;;;;;;4540105;26;20067;-75
2024/04/10 03:10:17;;;;;;;10.15;3.08;;;9.20;71.30;;;;;;4507772;26;20113;-75
2024/04/10 03:12:18;;;;;;;14.98;8.63;;;9.10;71.30;;;;;;4493166;26;20445;-75
2024/04/10 03:14:18;;;;;;;13.85;9.55;;;9.10;71.60;;;;;;4539590;26;20017;-76
2024/04/10 03:16:19;;;;;;;21.90;11.27;;;9.10;71.30;;;;;;4539642;26;19999;-75
2024/04/10 03:18:20;;;;;;;16.55;6.53;;;9.20;71.10;;;;;;4539775;26;20074;-76
2024/04/10 03:20:21;;;;;;;11.90;6.43;;;9.10;70.90;;;;;;4539529;26;20418;-76
2024/04/10 03:22:22;;;;;;;12.93;5.40;;;9.20;70.80;;;;;;4539793;26;20001;-75
2024/04/10 03:24:22;;;;;;;11.02;3.65;;;9.10;71.10;;;;;;4539610;26;20062;-75
2024/04/10 03:26:23;;;;;;;14.90;3.60;;;9.20;71.70;;;;;;4539424;26;20005;-74
2024/04/10 03:28:23;;;;;;;10.35;2.80;;;9.20;71.70;;;;;;4539679;26;20018;-74
2024/04/10 03:30:24;;;;;;;7.35;2.80;;;9.20;71.80;;;;;;4539302;26;20002;-75
2024/04/10 03:32:30;;;;;;;12.50;3.45;;;9.20;71.70;;;;;;4539793;26;20439;-75
2024/04/10 03:34:30;;;;;;;11.20;3.13;;;9.20;71.40;;;;;;4539611;26;20312;-74
2024/04/10 03:36:31;;;;;;;10.48;2.53;;;9.20;71.70;;;;;;4539055;26;19998;-75
2024/04/10 03:38:32;;;;;;;11.68;2.88;;;9.20;71.50;;;;;;4539438;26;20010;-75
2024/04/10 03:40:32;;;;;;;12.73;2.55;;;9.20;71.20;;;;;;4539482;26;19998;-75
2024/04/10 03:42:33;;;;;;;6.50;2.38;;;9.20;71.60;;;;;;4539270;26;20005;-75
2024/04/10 03:44:35;;;;;;;15.90;3.00;;;9.20;72.00;;;;;;4538991;26;20062;-75
2024/04/10 03:46:36;;;;;;;10.18;2.50;;;9.20;71.90;;;;;;4539392;26;19994;-75
2024/04/10 03:48:36;;;;;;;10.88;2.50;;;9.20;71.90;;;;;;4539311;26;20032;-75
2024/04/10 03:50:37;;;;;;;13.07;3.10;;;9.20;72.00;;;;;;4567720;26;19993;-75
2024/04/10 03:52:37;;;;;;;12.13;2.22;;;9.20;72.10;;;;;;4539359;26;20063;-75
2024/04/10 03:54:38;;;;;;;10.50;2.67;;;9.20;72.00;;;;;;4538827;26;20089;-75
2024/04/10 03:56:39;;;;;;;14.07;3.83;;;9.20;72.00;;;;;;4538981;26;20002;-76
2024/04/10 03:58:39;;;;;;;11.02;3.05;;;9.20;72.40;;;;;;4507528;26;19995;-75
2024/04/10 04:00:40;;;;;;;14.75;3.10;;;9.20;72.50;;;;;;4528689;26;19998;-75
2024/04/10 04:02:41;;;;;;;12.05;3.55;;;9.20;72.50;;;;;;4539114;26;20006;-75
2024/04/10 04:04:41;;;;;;;13.02;3.17;;;9.20;72.40;;;;;;4506586;26;20037;-75
2024/04/10 04:06:44;;;;;;;8.48;2.63;;;9.20;72.40;;;;;;4517096;26;20002;-75
2024/04/10 04:08:47;;;;;;;10.68;2.63;;;9.10;73.10;;;;;;4539174;26;20105;-75
2024/04/10 04:10:48;;;;;;;9.10;2.53;;;9.10;73.60;;;;;;4507559;26;20062;-75
2024/04/10 04:12:48;;;;;;;9.38;2.70;;;9.10;73.50;;;;;;4532102;26;20028;-75
2024/04/10 04:14:49;;;;;;;21.27;6.55;;;9.00;73.60;;;;;;4538769;26;20010;-74
2024/04/10 04:16:50;;;;;;;8.15;2.22;;;9.10;73.60;;;;;;4539338;26;19998;-75
2024/04/10 04:18:50;;;;;;;17.15;3.50;;;9.10;73.70;;;;;;4539094;26;19998;-75
2024/04/10 04:20:51;;;;;;;8.40;2.60;;;9.00;73.70;;;;;;4539724;26;20017;-75
2024/04/10 04:22:52;;;;;;;16.15;4.18;;;9.10;73.30;;;;;;4539046;26;20074;-75
2024/04/10 04:24:52;;;;;;;13.18;3.30;;;9.10;73.10;;;;;;4538519;26;20002;-76
2024/04/10 04:26:53;;;;;;;15.45;3.85;;;9.10;73.30;;;;;;4538988;26;20090;-75
2024/04/10 04:28:54;;;;;;;9.15;2.53;;;9.10;73.50;;;;;;4538729;26;20057;-75
2024/04/10 04:30:54;;;;;;;11.00;3.38;;;9.00;73.70;;;;;;4539113;26;20073;-75
2024/04/10 04:32:55;;;;;;;11.35;2.42;;;9.00;73.80;;;;;;4507179;26;20186;-76
2024/04/10 04:34:56;;;;;;;11.68;3.38;;;9.00;74.00;;;;;;4524600;26;20380;-75
2024/04/10 04:36:56;;;;;;;9.88;2.88;;;9.00;73.80;;;;;;4507116;26;19995;-75
2024/04/10 04:38:57;;;;;;;13.07;3.25;;;9.00;73.60;;;;;;4562792;25;20368;-75
2024/04/10 04:40:57;;;;;;;11.98;2.90;;;9.00;73.70;;;;;;4506880;26;20010;-75
2024/04/10 04:43:08;;;;;;;6.57;2.63;;;9.00;73.60;;;;;;4538632;26;20002;-75
2024/04/10 04:45:09;;;;;;;10.43;2.63;;;9.00;73.70;;;;;;4538454;26;19998;-76
2024/04/10 04:47:09;;;;;;;12.68;2.83;;;9.00;73.80;;;;;;4567349;26;20037;-75
2024/04/10 04:49:10;;;;;;;13.70;3.65;;;9.00;73.60;;;;;;4538498;26;19998;-75
2024/04/10 04:51:11;;;;;;;12.23;3.08;;;8.90;74.00;;;;;;4566995;26;20001;-75
2024/04/10 04:53:13;;;;;;;13.02;3.47;;;8.90;74.00;;;;;;4538536;26;20012;-75
2024/04/10 04:55:13;;;;;;;11.32;3.53;;;8.90;74.00;;;;;;4506180;26;20017;-75
2024/04/10 04:57:14;;;;;;;13.25;3.25;;;8.90;74.20;;;;;;4555643;26;19990;-75
2024/04/10 04:59:16;;;;;;;9.73;3.17;;;8.90;74.00;;;;;;4506639;26;20027;-75
2024/04/10 05:01:16;;;;;;;14.15;2.90;;;8.90;74.30;;;;;;4504742;26;20003;-75
2024/04/10 05:05:36;;;;;;;13.38;2.50;;;8.90;74.10;;;;;;4537841;26;20096;-75
2024/04/10 05:07:38;;;;;;;8.65;3.28;;;8.90;74.20;;;;;;4538575;26;20002;-75
2024/04/10 05:09:38;;;;;;;9.48;3.15;;;9.00;74.20;;;;;;4506240;26;20440;-75
2024/04/10 05:11:39;;;;;;;19.35;3.60;;;8.90;74.30;;;;;;4537298;26;20038;-75
2024/04/10 05:13:40;;;;;;;14.85;2.60;;;8.90;74.50;;;;;;4538147;26;20041;-75
2024/04/10 05:15:40;;;;;;;11.85;2.75;;;8.90;74.70;;;;;;4537645;26;20512;-76
2024/04/10 05:17:43;;;;;;;10.30;3.28;;;8.90;74.50;;;;;;4537859;26;19998;-75
2024/04/10 05:19:43;;;;;;;14.00;2.80;;;8.90;74.50;;;;;;4506219;26;19999;-76
2024/04/10 05:21:44;;;;;;;17.10;3.95;;;9.00;74.50;;;;;;4537960;26;20121;-76
2024/04/10 05:23:46;;;;;;;13.95;3.50;;;9.00;74.60;;;;;;4505762;26;19999;-76
2024/04/10 05:25:49;;;;;;;9.07;3.42;;;9.00;74.30;;;;;;4513927;26;19994;-75
2024/04/10 05:27:49;;;;;;;11.70;3.22;;;9.00;74.40;;;;;;4537910;26;20444;-75
2024/04/10 05:30:01;;;;;;;8.48;3.67;;;9.00;74.60;;;;;;4537734;26;19994;-75
2024/04/10 05:32:02;;;;;;;46.25;28.17;;;9.00;74.70;;;;;;4537515;26;20020;-75
2024/04/10 05:34:03;;;;;;;30.23;16.42;;;9.00;74.70;;;;;;4538310;26;20002;-75
2024/04/10 05:36:05;;;;;;;14.63;7.60;;;9.00;74.70;;;;;;4537513;26;20004;-75
2024/04/10 05:38:06;;;;;;;14.73;5.15;;;9.10;74.60;;;;;;4537705;26;20787;-75
2024/04/10 05:40:09;;;;;;;11.77;3.90;;;9.10;74.40;;;;;;4538166;26;20002;-76
2024/04/10 05:42:10;;;;;;;11.13;3.28;;;9.20;74.30;;;;;;4506372;26;20014;-76
2024/04/10 05:44:11;;;;;;;15.93;3.92;;;9.20;74.50;;;;;;4537779;26;20002;-75
2024/04/10 05:46:12;;;;;;;16.25;3.25;;;9.30;74.40;;;;;;4537527;26;20449;-75
2024/04/10 05:48:12;;;;;;;11.68;3.33;;;9.30;74.50;;;;;;4566173;26;20060;-75
2024/04/10 05:50:13;;;;;;;8.40;3.15;;;9.30;74.60;;;;;;4537865;26;19998;-76
2024/04/10 05:52:13;;;;;;;13.85;3.00;;;9.30;74.50;;;;;;4505816;26;20416;-75
2024/04/10 05:54:14;;;;;;;10.05;2.83;;;9.30;74.60;;;;;;4532597;26;20002;-75
2024/04/10 05:56:15;;;;;;;9.27;2.83;;;9.40;74.40;;;;;;4537064;26;20313;-75
2024/04/10 05:58:15;;;;;;;13.15;5.15;;;9.40;74.60;;;;;;4537466;26;20047;-75
2024/04/10 06:00:17;;;;;;;11.85;4.85;;;9.40;74.50;;;;;;4505634;26;20344;-75
2024/04/10 06:02:18;;;;;;;13.00;3.00;;;9.40;74.80;;;;;;4493776;26;19995;-75
2024/04/10 06:04:18;;;;;;;8.30;3.17;;;9.40;74.70;;;;;;4498934;26;20321;-76
2024/04/10 06:06:19;;;;;;;11.20;4.22;;;9.40;74.70;;;;;;4565460;26;20001;-76
2024/04/10 06:08:19;;;;;;;12.10;3.35;;;9.50;74.60;;;;;;4537657;26;20553;-75
2024/04/10 06:10:20;;;;;;;16.52;3.58;;;9.50;74.50;;;;;;4565822;26;20004;-75
2024/04/10 06:12:22;;;;;;;8.65;2.65;;;9.50;74.70;;;;;;4505325;26;20003;-76
2024/04/10 06:14:22;;;;;;;16.70;3.75;;;9.50;74.80;;;;;;4527704;26;19995;-76
2024/04/10 06:16:23;;;;;;;13.70;3.80;;;9.60;74.80;;;;;;4537376;26;20030;-76
2024/04/10 06:18:24;;;;;;;18.92;3.97;;;9.50;74.80;;;;;;4537764;26;19994;-75
2024/04/10 06:20:25;;;;;;;17.63;3.90;;;9.60;74.70;;;;;;4537126;26;20013;-76
2024/04/10 06:22:25;;;;;;;7.05;2.80;;;9.70;74.70;;;;;;4537364;26;20009;-76
2024/04/10 06:24:26;;;;;;;10.20;2.67;;;9.80;74.60;;;;;;4539574;26;20003;-76
2024/04/10 06:26:27;;;;;;;12.48;3.60;;;9.80;74.60;;;;;;4540253;26;20032;-76
2024/04/10 06:28:28;;;;;;;16.75;3.40;;;9.90;74.80;;;;;;4540643;26;19998;-76
2024/04/10 06:30:28;;;;;;;9.50;2.83;;;9.70;74.80;;;;;;4540050;26;20050;-75
2024/04/10 06:32:31;;;;;;;11.77;3.13;;;9.80;74.80;;;;;;4540483;26;20093;-76
2024/04/10 06:34:31;;;;;;;10.20;4.28;;;9.80;74.90;;;;;;4568578;26;20539;-75
2024/04/10 06:36:32;;;;;;;17.23;4.72;;;9.80;74.90;;;;;;4508574;26;20165;-75
2024/04/10 06:38:34;;;;;;;16.70;4.82;;;9.80;74.90;;;;;;4529668;26;20006;-75
2024/04/10 06:40:36;;;;;;;10.65;3.92;;;9.80;74.90;;;;;;4508316;26;20011;-75
2024/04/10 06:42:36;;;;;;;11.85;3.35;;;9.80;74.90;;;;;;4540084;26;20332;-75
2024/04/10 06:44:37;;;;;;;11.98;3.58;;;9.80;75.10;;;;;;4540008;26;20034;-76
2024/04/10 06:46:37;;;;;;;13.93;3.30;;;9.70;75.20;;;;;;4540346;26;20066;-76
2024/04/10 06:48:39;;;;;;;11.00;3.45;;;9.70;75.50;;;;;;4540309;26;20365;-75
2024/04/10 06:50:39;;;;;;;9.93;2.55;;;9.70;75.60;;;;;;4540558;26;19999;-76
2024/04/10 06:52:40;;;;;;;16.38;3.72;;;9.70;75.60;;;;;;4540193;26;20046;-75
2024/04/10 06:54:41;;;;;;;9.48;2.83;;;9.80;75.70;;;;;;4539985;26;20428;-76
2024/04/10 06:56:41;;;;;;;12.90;4.38;;;9.80;75.60;;;;;;4540139;26;19994;-76
2024/04/10 06:58:43;;;;;;;25.65;5.30;;;9.90;75.60;;;;;;4540399;26;20013;-75
2024/04/10 07:00:54;;;;;;;12.98;3.50;;;9.90;75.60;;;;;;4540265;26;20000;-76
2024/04/10 07:02:55;;;;;;;9.77;3.03;;;9.90;75.60;;;;;;4540690;26;20082;-76
2024/04/10 07:04:55;;;;;;;10.43;3.92;;;9.90;75.70;;;;;;4539802;26;20009;-75
2024/04/10 07:07:02;;;;;;;15.30;3.28;;;9.90;75.70;;;;;;4540226;26;20117;-75
2024/04/10 07:09:02;;;;;;;18.15;3.60;;;10.00;75.70;;;;;;4540268;26;19998;-76
2024/04/10 07:11:04;;;;;;;13.23;3.72;;;10.10;75.70;;;;;;4540156;26;20013;-76
2024/04/10 07:13:05;;;;;;;14.48;4.00;;;10.10;75.50;;;;;;4507896;26;20017;-76
2024/04/10 07:15:06;;;;;;;13.27;3.65;;;10.10;75.60;;;;;;4513708;26;20042;-75
2024/04/10 07:17:07;;;;;;;15.68;3.80;;;10.10;75.60;;;;;;4521061;26;19994;-76
2024/04/10 07:19:08;;;;;;;15.25;3.50;;;10.10;75.80;;;;;;4540086;26;20008;-75
2024/04/10 07:21:11;;;;;;;12.30;3.80;;;10.10;75.80;;;;;;4508123;26;19999;-76
2024/04/10 07:23:12;;;;;;;11.70;3.70;;;10.10;75.90;;;;;;4528150;26;20013;-76
2024/04/10 07:25:12;;;;;;;10.48;3.67;;;10.20;75.90;;;;;;4507658;26;20089;-76
2024/04/10 07:27:13;;;;;;;15.52;4.68;;;10.40;76.10;;;;;;4537513;26;20412;-75
2024/04/10 07:29:14;;;;;;;12.60;4.43;;;10.50;76.20;;;;;;4539827;26;20071;-76
2024/04/10 07:31:17;;;;;;;17.65;3.65;;;10.60;76.10;;;;;;4568523;26;20506;-76
2024/04/10 07:33:17;;;;;;;13.73;4.13;;;10.70;75.90;;;;;;4507675;26;19999;-76
2024/04/10 07:35:18;;;;;;;8.68;3.15;;;10.70;75.70;;;;;;4538978;26;19999;-76
2024/04/10 07:37:18;;;;;;;22.10;4.43;;;10.70;75.70;;;;;;4539547;26;20009;-75
2024/04/10 07:39:19;;;;;;;13.73;3.05;;;10.80;75.80;;;;;;4539182;26;20037;-75
2024/04/10 07:41:20;;;;;;;13.32;3.75;;;10.80;75.80;;;;;;4539445;26;20017;-74
2024/04/10 07:43:21;;;;;;;10.73;3.92;;;10.90;75.80;;;;;;4539522;26;19998;-76
2024/04/10 07:45:21;;;;;;;21.30;3.70;;;10.90;75.90;;;;;;4539044;26;19998;-75
2024/04/10 07:47:22;;;;;;;11.35;5.05;;;11.00;75.90;;;;;;4539586;26;20063;-75
2024/04/10 07:49:23;;;;;;;15.25;5.60;;;11.10;75.90;;;;;;4539768;26;20102;-75
2024/04/10 07:51:25;;;;;;;18.92;3.83;;;11.20;76.00;;;;;;4539591;26;20170;-75
2024/04/10 07:53:25;;;;;;;12.90;3.50;;;11.30;75.80;;;;;;4539126;26;19994;-75
2024/04/10 07:55:26;;;;;;;11.93;3.47;;;11.30;75.60;;;;;;4538870;26;19998;-75
2024/04/10 07:57:27;;;;;;;15.40;3.35;;;11.40;75.50;;;;;;4507533;26;20466;-76
2024/04/10 07:59:28;;;;;;;13.95;3.28;;;11.50;75.40;;;;;;4536026;26;20002;-76
2024/04/10 08:01:28;;;;;;;16.75;3.80;;;11.50;75.30;;;;;;4539819;26;20047;-76
2024/04/10 08:03:30;;;;;;;11.02;3.70;;;11.70;75.30;;;;;;4567609;26;20430;-76
2024/04/10 08:05:31;;;;;;;12.20;3.20;;;11.60;75.00;;;;;;4539091;26;20002;-76
2024/04/10 08:07:32;;;;;;;14.20;3.72;;;11.60;74.90;;;;;;4507236;26;20010;-76
2024/04/10 08:09:32;;;;;;;11.70;3.50;;;11.50;74.90;;;;;;4502483;26;20119;-76
2024/04/10 08:11:33;;;;;;;13.52;3.53;;;11.50;75.00;;;;;;4538721;26;19998;-76
2024/04/10 08:13:34;;;;;;;13.30;3.30;;;11.60;75.10;;;;;;4539367;26;20106;-75
2024/04/10 08:15:35;;;;;;;9.45;4.85;;;11.60;75.20;;;;;;4539062;26;19997;-76
2024/04/10 08:17:40;;;;;;;11.48;3.38;;;11.60;75.20;;;;;;4539226;26;20006;-76
2024/04/10 08:19:40;;;;;;;16.02;4.43;;;11.60;75.40;;;;;;4539307;26;20372;-76
2024/04/10 08:21:41;;;;;;;15.00;3.40;;;11.50;75.50;;;;;;4507455;26;20013;-75
2024/04/10 08:23:43;;;;;;;15.82;4.30;;;11.50;75.50;;;;;;4563490;25;20005;-76
2024/04/10 08:25:44;;;;;;;10.65;3.58;;;11.60;75.50;;;;;;4538614;26;20002;-76
2024/04/10 08:27:45;;;;;;;14.25;4.15;;;11.60;75.70;;;;;;4539461;26;20443;-76
2024/04/10 08:29:48;;;;;;;16.80;4.00;;;11.60;75.70;;;;;;4552454;26;19994;-75
2024/04/10 08:31:49;;;;;;;18.42;3.85;;;11.70;75.70;;;;;;4529404;26;20484;-76
2024/04/10 08:33:52;;;;;;;11.05;3.13;;;11.80;75.70;;;;;;4507198;26;20450;-77
2024/04/10 08:35:54;;;;;;;;;;;11.90;75.60;;;;;;4513717;26;20365;-76
2024/04/10 08:37:55;;;;;;;16.02;4.90;;;11.90;75.70;;;;;;4506986;26;19929;-76
2024/04/10 08:39:56;;;;;;;78.40;43.92;;;12.00;75.80;;;;;;4538902;26;20036;-75
2024/04/10 08:41:59;;;;;;;14.82;4.05;;;12.00;75.70;;;;;;4507134;26;19995;-76
2024/04/10 08:44:00;;;;;;;9.43;3.25;;;12.00;75.80;;;;;;4506993;26;20464;-75
2024/04/10 08:46:01;;;;;;;15.70;3.30;;;12.10;75.80;;;;;;4490800;26;20007;-76
2024/04/10 08:48:02;;;;;;;25.77;3.63;;;12.20;75.70;;;;;;4500053;26;20014;-76
2024/04/10 08:50:03;;;;;;;22.75;3.78;;;12.20;75.60;;;;;;4501577;26;20372;-76
2024/04/10 08:52:04;;;;;;;14.45;3.53;;;12.20;75.60;;;;;;4539160;26;20009;-76
2024/04/10 08:54:06;;;;;;;18.77;3.63;;;12.20;75.60;;;;;;4505878;26;19995;-75
2024/04/10 08:56:08;;;;;;;19.77;3.85;;;12.30;75.50;;;;;;4532290;26;19994;-76
2024/04/10 08:58:09;;;;;;;13.13;3.47;;;12.40;75.50;;;;;;4496056;26;20013;-75
2024/04/10 09:00:10;;;;;;;24.88;3.80;;;12.40;75.50;;;;;;4536882;26;20610;-76
2024/04/10 09:02:12;;;;;;;17.33;4.90;;;12.40;75.50;;;;;;4506411;26;20076;-76
2024/04/10 09:04:13;;;;;;;13.95;3.25;;;12.50;75.70;;;;;;4533167;26;20014;-76
2024/04/10 09:06:13;;;;;;;16.98;3.80;;;12.60;75.70;;;;;;4534587;26;20787;-76
2024/04/10 09:08:14;;;;;;;14.73;3.33;;;12.70;75.40;;;;;;4532267;26;20013;-76
2024/04/10 09:10:15;;;;;;;16.65;3.65;;;12.80;75.50;;;;;;4533883;26;20012;-76
2024/04/10 09:12:24;;;;;;;17.88;3.30;;;12.90;75.10;;;;;;4530312;26;19997;-77
2024/04/10 09:14:27;;;;;;;13.15;4.07;;;13.00;75.10;;;;;;4549898;26;20016;-77
2024/04/10 09:16:28;;;;;;;12.50;3.15;;;13.00;74.80;;;;;;4538251;26;20070;-77
2024/04/10 09:18:28;;;;;;;19.35;3.38;;;13.10;74.90;;;;;;4538522;26;20387;-77
2024/04/10 09:20:29;;;;;;;17.95;4.55;;;13.10;74.20;;;;;;4537608;26;20026;-78
2024/04/10 09:22:30;;;;;;;12.73;3.67;;;13.00;74.30;;;;;;4566245;26;19994;-76
2024/04/10 09:24:31;;;;;;;18.73;3.85;;;13.10;74.40;;;;;;4537790;26;20528;-76
2024/04/10 09:26:31;;;;;;;17.48;3.88;;;13.10;74.30;;;;;;4520409;26;20038;-75
2024/04/10 09:28:33;;;;;;;16.35;3.78;;;13.20;74.30;;;;;;4558282;26;19997;-76
2024/04/10 09:30:35;;;;;;;15.38;3.85;;;13.40;74.60;;;;;;4566632;26;19995;-76
2024/04/10 09:32:36;;;;;;;12.70;3.72;;;13.50;74.30;;;;;;4537684;26;20328;-75
2024/04/10 09:34:39;;;;;;;13.23;3.20;;;13.70;73.90;;;;;;4537769;26;20005;-75
2024/04/10 09:36:41;;;;;;;18.02;3.92;;;13.70;73.60;;;;;;4537492;26;20038;-77
2024/04/10 09:38:41;;;;;;;17.02;3.35;;;13.90;73.10;;;;;;4537900;26;19994;-77
2024/04/10 09:40:49;;;;;;;11.18;3.47;;;13.80;72.20;;;;;;4565939;25;20002;-75
2024/04/10 09:42:50;;;;;;;10.93;3.08;;;13.90;72.40;;;;;;4505524;26;20027;-75
2024/04/10 09:44:59;;;;;;;18.50;3.67;;;13.90;72.30;;;;;;4537497;26;19998;-75
2024/04/10 09:47:01;;;;;;;10.98;3.13;;;13.90;72.10;;;;;;4537423;26;19998;-76
2024/04/10 09:49:09;;;;;;;11.32;3.65;;;14.00;72.60;;;;;;4505821;26;20015;-75
2024/04/10 09:51:13;;;;;;;23.90;9.00;;;14.00;71.60;;;;;;4512286;26;20076;-75
2024/04/10 09:53:19;;;;;;;8.80;3.33;;;14.00;71.60;;;;;;4540384;26;20002;-77
2024/04/10 09:55:20;;;;;;;16.73;3.72;;;14.00;71.20;;;;;;4551836;26;19998;-76
2024/04/10 09:57:21;;;;;;;16.38;3.80;;;13.90;71.30;;;;;;4543100;26;20073;-76
2024/04/10 09:59:22;;;;;;;16.98;3.83;;;14.00;71.80;;;;;;4513347;26;19998;-76
2024/04/10 10:01:23;;;;;;;11.05;3.45;;;14.00;70.80;;;;;;4514872;26;20003;-75
2024/04/10 10:03:25;;;;;;;16.65;3.95;;;14.00;71.10;;;;;;4524557;26;20398;-75
2024/04/10 10:05:27;;;;;;;15.48;4.00;;;14.10;70.40;;;;;;4499753;26;20011;-76
2024/04/10 10:07:29;;;;;;;;;;;14.20;71.30;;;;;;4542376;26;20039;-76
2024/04/10 10:09:30;;;;;;;16.00;3.17;;;14.30;69.70;;;;;;4508689;26;19936;-73
2024/04/10 10:11:31;;;;;;;11.80;3.13;;;14.20;69.00;;;;;;4539386;26;20016;-75
2024/04/10 10:13:42;;;;;;;14.52;2.97;;;14.20;69.30;;;;;;4540417;26;20009;-76
2024/04/10 10:15:43;;;;;;;15.13;3.20;;;14.30;69.40;;;;;;4536868;26;19998;-76
2024/04/10 10:17:52;;;;;;;11.32;2.85;;;14.40;67.90;;;;;;4540443;26;20005;-75
2024/04/10 10:19:53;;;;;;;13.13;2.63;;;14.40;68.30;;;;;;4508527;26;20064;-75
2024/04/10 10:21:59;;;;;;;16.63;2.92;;;14.50;67.20;;;;;;4509007;26;20041;-75
2024/04/10 10:24:06;;;;;;;14.18;2.30;;;14.50;67.30;;;;;;4566784;26;20455;-75
2024/04/10 10:26:09;;;;;;;6.32;2.67;;;14.60;67.60;;;;;;4486314;26;20002;-76
2024/04/10 10:28:10;;;;;;;9.68;2.47;;;14.80;68.70;;;;;;4504287;26;20608;-76
2024/04/10 10:30:11;;;;;;;10.80;2.35;;;15.00;68.60;;;;;;4539588;26;20002;-77
2024/04/10 10:32:11;;;;;;;14.85;3.25;;;14.90;65.80;;;;;;4507768;26;19994;-76